sensor_id;sensor_type;location;lat;lon;timestamp;pressure;altitude;pressure_sealevel;temperature;humidity
60373;BME280;46216;52.220;5.134;2023-05-20T00:01:32;102679.41;;;12.70;100.00
60373;BME280;46216;52.220;5.134;2023-05-20T00:03:57;102671.69;;;12.64;100.00
60373;BME280;46216;52.220;5.134;2023-05-20T00:06:23;102675.13;;;12.66;100.00
60373;BME280;46216;52.220;5.134;2023-05-20T00:08:48;102680.97;;;12.57;100.00
60373;BME280;46216;52.220;5.134;2023-05-20T00:11:13;102685.53;;;12.55;100.00
60373;BME280;46216;52.220;5.134;2023-05-20T00:13:39;102685.38;;;12.58;100.00
60373;BME280;46216;52.220;5.134;2023-05-20T00:16:05;102677.50;;;12.55;100.00
60373;BME280;46216;52.220;5.134;2023-05-20T00:18:30;102678.75;;;12.48;100.00
60373;BME280;46216;52.220;5.134;2023-05-20T00:20:57;102681.50;;;12.46;100.00
60373;BME280;46216;52.220;5.134;2023-05-20T00:23:22;102689.47;;;12.48;100.00
60373;BME280;46216;52.220;5.134;2023-05-20T00:25:48;102685.94;;;12.47;100.00
60373;BME280;46216;52.220;5.134;2023-05-20T00:28:14;102683.47;;;12.43;100.00
60373;BME280;46216;52.220;5.134;2023-05-20T00:30:39;102680.03;;;12.41;100.00
60373;BME280;46216;52.220;5.134;2023-05-20T00:33:08;102688.03;;;12.41;100.00
60373;BME280;46216;52.220;5.134;2023-05-20T00:35:33;102687.78;;;12.45;100.00
60373;BME280;46216;52.220;5.134;2023-05-20T00:37:59;102692.38;;;12.43;100.00
60373;BME280;46216;52.220;5.134;2023-05-20T00:40:25;102686.09;;;12.44;100.00
60373;BME280;46216;52.220;5.134;2023-05-20T00:42:50;102689.72;;;12.43;100.00
60373;BME280;46216;52.220;5.134;2023-05-20T00:45:16;102685.38;;;12.41;100.00
60373;BME280;46216;52.220;5.134;2023-05-20T00:47:42;102689.63;;;12.45;100.00
60373;BME280;46216;52.220;5.134;2023-05-20T00:50:08;102684.25;;;12.45;100.00
60373;BME280;46216;52.220;5.134;2023-05-20T00:52:35;102684.25;;;12.45;100.00
60373;BME280;46216;52.220;5.134;2023-05-20T00:55:01;102678.13;;;12.43;100.00
60373;BME280;46216;52.220;5.134;2023-05-20T00:57:26;102672.91;;;12.40;100.00
60373;BME280;46216;52.220;5.134;2023-05-20T00:59:52;102665.69;;;12.42;100.00
60373;BME280;46216;52.220;5.134;2023-05-20T01:02:18;102655.16;;;12.39;100.00
60373;BME280;46216;52.220;5.134;2023-05-20T01:04:44;102658.84;;;12.36;100.00
60373;BME280;46216;52.220;5.134;2023-05-20T01:07:12;102653.44;;;12.38;100.00
60373;BME280;46216;52.220;5.134;2023-05-20T01:09:38;102651.00;;;12.33;100.00
60373;BME280;46216;52.220;5.134;2023-05-20T01:12:11;102654.69;;;12.30;100.00
60373;BME280;46216;52.220;5.134;2023-05-20T01:14:45;102655.47;;;12.32;100.00
60373;BME280;46216;52.220;5.134;2023-05-20T01:17:11;102653.28;;;12.23;100.00
60373;BME280;46216;52.220;5.134;2023-05-20T01:19:40;102659.56;;;12.22;100.00
60373;BME280;46216;52.220;5.134;2023-05-20T01:22:11;102657.81;;;12.21;100.00
60373;BME280;46216;52.220;5.134;2023-05-20T01:24:41;102654.34;;;12.19;100.00
60373;BME280;46216;52.220;5.134;2023-05-20T01:27:09;102649.25;;;12.15;100.00
60373;BME280;46216;52.220;5.134;2023-05-20T01:29:36;102652.63;;;12.18;100.00
60373;BME280;46216;52.220;5.134;2023-05-20T01:32:04;102650.91;;;12.17;100.00
60373;BME280;46216;52.220;5.134;2023-05-20T01:34:31;102647.59;;;12.12;100.00
60373;BME280;46216;52.220;5.134;2023-05-20T01:36:57;102642.09;;;12.15;100.00
60373;BME280;46216;52.220;5.134;2023-05-20T01:39:23;102638.66;;;12.13;100.00
60373;BME280;46216;52.220;5.134;2023-05-20T01:41:49;102637.69;;;12.14;100.00
60373;BME280;46216;52.220;5.134;2023-05-20T01:44:15;102641.47;;;12.10;100.00
60373;BME280;46216;52.220;5.134;2023-05-20T01:46:40;102637.25;;;12.06;100.00
60373;BME280;46216;52.220;5.134;2023-05-20T01:49:05;102629.38;;;12.03;100.00
60373;BME280;46216;52.220;5.134;2023-05-20T01:51:31;102631.88;;;12.06;100.00
60373;BME280;46216;52.220;5.134;2023-05-20T01:53:59;102640.78;;;12.06;100.00
60373;BME280;46216;52.220;5.134;2023-05-20T01:56:24;102631.09;;;12.04;100.00
60373;BME280;46216;52.220;5.134;2023-05-20T01:58:50;102633.75;;;12.04;100.00
60373;BME280;46216;52.220;5.134;2023-05-20T02:01:15;102637.38;;;12.03;100.00
60373;BME280;46216;52.220;5.134;2023-05-20T02:03:40;102630.28;;;12.02;100.00
60373;BME280;46216;52.220;5.134;2023-05-20T02:06:06;102636.53;;;12.02;100.00
60373;BME280;46216;52.220;5.134;2023-05-20T02:08:31;102627.56;;;12.03;100.00
60373;BME280;46216;52.220;5.134;2023-05-20T02:10:56;102623.38;;;11.98;100.00
60373;BME280;46216;52.220;5.134;2023-05-20T02:13:22;102628.50;;;12.02;100.00
60373;BME280;46216;52.220;5.134;2023-05-20T02:15:47;102637.44;;;12.01;100.00
60373;BME280;46216;52.220;5.134;2023-05-20T02:18:12;102627.06;;;11.95;100.00
60373;BME280;46216;52.220;5.134;2023-05-20T02:20:38;102627.63;;;12.02;100.00
60373;BME280;46216;52.220;5.134;2023-05-20T02:23:03;102632.19;;;12.00;100.00
60373;BME280;46216;52.220;5.134;2023-05-20T02:25:30;102634.88;;;12.00;100.00
60373;BME280;46216;52.220;5.134;2023-05-20T02:27:56;102638.44;;;11.99;100.00
60373;BME280;46216;52.220;5.134;2023-05-20T02:30:21;102639.50;;;11.96;100.00
60373;BME280;46216;52.220;5.134;2023-05-20T02:32:46;102624.38;;;11.95;100.00
60373;BME280;46216;52.220;5.134;2023-05-20T02:35:12;102625.28;;;11.96;100.00
60373;BME280;46216;52.220;5.134;2023-05-20T02:37:37;102629.72;;;11.95;100.00
60373;BME280;46216;52.220;5.134;2023-05-20T02:40:04;102627.16;;;11.94;100.00
60373;BME280;46216;52.220;5.134;2023-05-20T02:42:29;102630.78;;;11.93;100.00
60373;BME280;46216;52.220;5.134;2023-05-20T02:44:54;102627.16;;;11.94;100.00
60373;BME280;46216;52.220;5.134;2023-05-20T02:47:23;102627.28;;;11.91;100.00
60373;BME280;46216;52.220;5.134;2023-05-20T02:49:49;102627.44;;;11.88;100.00
60373;BME280;46216;52.220;5.134;2023-05-20T02:52:14;102617.72;;;11.87;100.00
60373;BME280;46216;52.220;5.134;2023-05-20T02:54:40;102618.56;;;11.87;100.00
60373;BME280;46216;52.220;5.134;2023-05-20T02:57:05;102617.78;;;11.85;100.00
60373;BME280;46216;52.220;5.134;2023-05-20T02:59:31;102621.34;;;11.86;100.00
60373;BME280;46216;52.220;5.134;2023-05-20T03:01:56;102615.16;;;11.83;100.00
60373;BME280;46216;52.220;5.134;2023-05-20T03:04:21;102616.97;;;11.83;100.00
60373;BME280;46216;52.220;5.134;2023-05-20T03:06:49;102615.31;;;11.80;100.00
60373;BME280;46216;52.220;5.134;2023-05-20T03:09:16;102617.13;;;11.80;100.00
60373;BME280;46216;52.220;5.134;2023-05-20T03:11:42;102622.38;;;11.81;100.00
60373;BME280;46216;52.220;5.134;2023-05-20T03:14:08;102620.59;;;11.82;100.00
60373;BME280;46216;52.220;5.134;2023-05-20T03:16:33;102622.50;;;11.78;100.00
60373;BME280;46216;52.220;5.134;2023-05-20T03:19:00;102625.28;;;11.77;100.00
60373;BME280;46216;52.220;5.134;2023-05-20T03:21:25;102617.50;;;11.72;100.00
60373;BME280;46216;52.220;5.134;2023-05-20T03:23:50;102626.44;;;11.71;100.00
60373;BME280;46216;52.220;5.134;2023-05-20T03:26:16;102624.84;;;11.67;100.00
60373;BME280;46216;52.220;5.134;2023-05-20T03:28:41;102630.19;;;11.67;100.00
60373;BME280;46216;52.220;5.134;2023-05-20T03:31:07;102630.34;;;11.64;100.00
60373;BME280;46216;52.220;5.134;2023-05-20T03:33:33;102632.09;;;11.65;100.00
60373;BME280;46216;52.220;5.134;2023-05-20T03:35:59;102631.44;;;11.60;100.00
60373;BME280;46216;52.220;5.134;2023-05-20T03:38:26;102629.56;;;11.62;100.00
60373;BME280;46216;52.220;5.134;2023-05-20T03:40:51;102632.25;;;11.62;100.00
60373;BME280;46216;52.220;5.134;2023-05-20T03:43:16;102632.38;;;11.59;100.00
60373;BME280;46216;52.220;5.134;2023-05-20T03:45:42;102628.91;;;11.57;100.00
60373;BME280;46216;52.220;5.134;2023-05-20T03:48:07;102633.41;;;11.56;100.00
60373;BME280;46216;52.220;5.134;2023-05-20T03:50:32;102635.34;;;11.53;100.00
60373;BME280;46216;52.220;5.134;2023-05-20T03:52:58;102636.28;;;11.52;100.00
60373;BME280;46216;52.220;5.134;2023-05-20T03:55:23;102632.72;;;11.51;100.00
60373;BME280;46216;52.220;5.134;2023-05-20T03:57:49;102627.63;;;11.47;100.00
60373;BME280;46216;52.220;5.134;2023-05-20T04:00:14;102635.59;;;11.48;100.00
60373;BME280;46216;52.220;5.134;2023-05-20T04:02:41;102635.63;;;11.47;100.00
60373;BME280;46216;52.220;5.134;2023-05-20T04:05:06;102633.09;;;11.44;100.00
60373;BME280;46216;52.220;5.134;2023-05-20T04:07:35;102626.03;;;11.43;100.00
60373;BME280;46216;52.220;5.134;2023-05-20T04:10:02;102622.44;;;11.44;100.00
60373;BME280;46216;52.220;5.134;2023-05-20T04:12:28;102625.19;;;11.42;100.00
60373;BME280;46216;52.220;5.134;2023-05-20T04:15:01;102625.09;;;11.44;100.00
60373;BME280;46216;52.220;5.134;2023-05-20T04:17:30;102627.75;;;11.44;100.00
60373;BME280;46216;52.220;5.134;2023-05-20T04:19:56;102639.31;;;11.44;100.00
60373;BME280;46216;52.220;5.134;2023-05-20T04:22:24;102633.09;;;11.44;100.00
60373;BME280;46216;52.220;5.134;2023-05-20T04:24:49;102635.72;;;11.45;100.00
60373;BME280;46216;52.220;5.134;2023-05-20T04:27:15;102630.38;;;11.45;100.00
60373;BME280;46216;52.220;5.134;2023-05-20T04:29:41;102631.81;;;11.52;100.00
60373;BME280;46216;52.220;5.134;2023-05-20T04:32:13;102642.34;;;11.55;100.00
60373;BME280;46216;52.220;5.134;2023-05-20T04:34:38;102636.78;;;11.60;100.00
60373;BME280;46216;52.220;5.134;2023-05-20T04:37:04;102644.50;;;11.66;100.00
60373;BME280;46216;52.220;5.134;2023-05-20T04:39:31;102643.41;;;11.70;100.00
60373;BME280;46216;52.220;5.134;2023-05-20T04:41:57;102644.22;;;11.72;100.00
60373;BME280;46216;52.220;5.134;2023-05-20T04:44:23;102634.16;;;11.77;100.00
60373;BME280;46216;52.220;5.134;2023-05-20T04:46:50;102645.63;;;11.79;100.00
60373;BME280;46216;52.220;5.134;2023-05-20T04:49:16;102650.03;;;11.80;100.00
60373;BME280;46216;52.220;5.134;2023-05-20T04:51:42;102648.97;;;11.84;100.00
60373;BME280;46216;52.220;5.134;2023-05-20T04:54:08;102655.03;;;11.88;100.00
60373;BME280;46216;52.220;5.134;2023-05-20T04:56:33;102650.47;;;11.90;100.00
60373;BME280;46216;52.220;5.134;2023-05-20T04:58:59;102654.66;;;11.96;100.00
60373;BME280;46216;52.220;5.134;2023-05-20T05:01:24;102647.38;;;11.99;100.00
60373;BME280;46216;52.220;5.134;2023-05-20T05:03:49;102645.31;;;12.04;100.00
60373;BME280;46216;52.220;5.134;2023-05-20T05:06:15;102642.41;;;12.09;100.00
60373;BME280;46216;52.220;5.134;2023-05-20T05:08:40;102638.41;;;12.18;100.00
60373;BME280;46216;52.220;5.134;2023-05-20T05:11:05;102634.88;;;12.17;100.00
60373;BME280;46216;52.220;5.134;2023-05-20T05:13:31;102630.94;;;12.24;100.00
60373;BME280;46216;52.220;5.134;2023-05-20T05:15:57;102636.13;;;12.27;100.00
60373;BME280;46216;52.220;5.134;2023-05-20T05:18:23;102632.03;;;12.38;100.00
60373;BME280;46216;52.220;5.134;2023-05-20T05:20:49;102623.78;;;12.42;100.00
60373;BME280;46216;52.220;5.134;2023-05-20T05:23:14;102633.91;;;12.53;100.00
60373;BME280;46216;52.220;5.134;2023-05-20T05:25:39;102634.53;;;12.58;100.00
60373;BME280;46216;52.220;5.134;2023-05-20T05:28:05;102631.31;;;12.69;100.00
60373;BME280;46216;52.220;5.134;2023-05-20T05:30:30;102625.38;;;12.79;100.00
60373;BME280;46216;52.220;5.134;2023-05-20T05:32:55;102618.41;;;12.93;100.00
60373;BME280;46216;52.220;5.134;2023-05-20T05:35:21;102631.03;;;13.07;100.00
60373;BME280;46216;52.220;5.134;2023-05-20T05:37:46;102615.19;;;13.19;100.00
60373;BME280;46216;52.220;5.134;2023-05-20T05:40:12;102614.88;;;13.25;100.00
60373;BME280;46216;52.220;5.134;2023-05-20T05:42:37;102614.00;;;13.41;100.00
60373;BME280;46216;52.220;5.134;2023-05-20T05:45:02;102612.88;;;13.45;100.00
60373;BME280;46216;52.220;5.134;2023-05-20T05:47:28;102606.81;;;13.41;100.00
60373;BME280;46216;52.220;5.134;2023-05-20T05:49:57;102609.25;;;13.46;100.00
60373;BME280;46216;52.220;5.134;2023-05-20T05:52:22;102602.00;;;13.48;100.00
60373;BME280;46216;52.220;5.134;2023-05-20T05:54:48;102599.06;;;13.53;100.00
60373;BME280;46216;52.220;5.134;2023-05-20T05:57:13;102601.19;;;13.62;100.00
60373;BME280;46216;52.220;5.134;2023-05-20T05:59:39;102603.69;;;13.65;100.00
60373;BME280;46216;52.220;5.134;2023-05-20T06:02:05;102609.00;;;13.66;100.00
60373;BME280;46216;52.220;5.134;2023-05-20T06:04:30;102607.69;;;13.73;100.00
60373;BME280;46216;52.220;5.134;2023-05-20T06:06:55;102607.34;;;13.80;100.00
60373;BME280;46216;52.220;5.134;2023-05-20T06:09:21;102600.84;;;13.84;100.00
60373;BME280;46216;52.220;5.134;2023-05-20T06:11:46;102602.19;;;13.91;100.00
60373;BME280;46216;52.220;5.134;2023-05-20T06:14:11;102595.53;;;13.98;100.00
60373;BME280;46216;52.220;5.134;2023-05-20T06:16:37;102601.66;;;14.00;100.00
60373;BME280;46216;52.220;5.134;2023-05-20T06:19:02;102599.75;;;14.02;100.00
60373;BME280;46216;52.220;5.134;2023-05-20T06:21:29;102596.19;;;14.02;100.00
60373;BME280;46216;52.220;5.134;2023-05-20T06:23:55;102598.41;;;14.09;100.00
60373;BME280;46216;52.220;5.134;2023-05-20T06:26:21;102595.19;;;14.18;100.00
60373;BME280;46216;52.220;5.134;2023-05-20T06:28:46;102592.94;;;14.27;100.00
60373;BME280;46216;52.220;5.134;2023-05-20T06:31:12;102594.28;;;14.34;100.00
60373;BME280;46216;52.220;5.134;2023-05-20T06:33:37;102592.19;;;14.39;100.00
60373;BME280;46216;52.220;5.134;2023-05-20T06:36:02;102593.72;;;14.43;100.00
60373;BME280;46216;52.220;5.134;2023-05-20T06:38:28;102592.78;;;14.44;100.00
60373;BME280;46216;52.220;5.134;2023-05-20T06:40:53;102583.31;;;14.53;100.00
60373;BME280;46216;52.220;5.134;2023-05-20T06:43:18;102595.88;;;14.66;100.00
60373;BME280;46216;52.220;5.134;2023-05-20T06:45:44;102578.84;;;14.82;100.00
60373;BME280;46216;52.220;5.134;2023-05-20T06:48:10;102579.28;;;15.03;100.00
60373;BME280;46216;52.220;5.134;2023-05-20T06:50:38;102575.25;;;15.10;100.00
60373;BME280;46216;52.220;5.134;2023-05-20T06:53:03;102580.31;;;15.14;100.00
60373;BME280;46216;52.220;5.134;2023-05-20T06:55:29;102577.75;;;15.13;100.00
60373;BME280;46216;52.220;5.134;2023-05-20T06:57:55;102574.09;;;15.14;100.00
60373;BME280;46216;52.220;5.134;2023-05-20T07:00:20;102566.22;;;15.11;100.00
60373;BME280;46216;52.220;5.134;2023-05-20T07:02:45;102565.75;;;15.19;100.00
60373;BME280;46216;52.220;5.134;2023-05-20T07:05:11;102567.28;;;15.23;100.00
60373;BME280;46216;52.220;5.134;2023-05-20T07:07:36;102575.47;;;15.34;100.00
60373;BME280;46216;52.220;5.134;2023-05-20T07:10:02;102565.59;;;15.34;100.00
60373;BME280;46216;52.220;5.134;2023-05-20T07:12:33;102566.91;;;15.42;100.00
60373;BME280;46216;52.220;5.134;2023-05-20T07:14:58;102563.94;;;15.46;100.00
60373;BME280;46216;52.220;5.134;2023-05-20T07:17:24;102565.25;;;15.53;100.00
60373;BME280;46216;52.220;5.134;2023-05-20T07:19:49;102561.19;;;15.60;100.00
60373;BME280;46216;52.220;5.134;2023-05-20T07:22:15;102563.00;;;15.74;100.00
60373;BME280;46216;52.220;5.134;2023-05-20T07:24:40;102550.97;;;15.80;100.00
60373;BME280;46216;52.220;5.134;2023-05-20T07:27:05;102549.38;;;15.90;100.00
60373;BME280;46216;52.220;5.134;2023-05-20T07:29:31;102545.19;;;15.99;100.00
60373;BME280;46216;52.220;5.134;2023-05-20T07:31:56;102547.34;;;16.06;100.00
60373;BME280;46216;52.220;5.134;2023-05-20T07:34:22;102541.47;;;16.14;100.00
60373;BME280;46216;52.220;5.134;2023-05-20T07:36:47;102539.63;;;16.15;100.00
60373;BME280;46216;52.220;5.134;2023-05-20T07:39:14;102538.66;;;16.16;100.00
60373;BME280;46216;52.220;5.134;2023-05-20T07:41:39;102541.56;;;16.25;100.00
60373;BME280;46216;52.220;5.134;2023-05-20T07:44:05;102526.06;;;16.29;100.00
60373;BME280;46216;52.220;5.134;2023-05-20T07:46:33;102534.22;;;16.40;100.00
60373;BME280;46216;52.220;5.134;2023-05-20T07:48:59;102525.09;;;16.55;100.00
60373;BME280;46216;52.220;5.134;2023-05-20T07:51:24;102531.53;;;16.66;100.00
60373;BME280;46216;52.220;5.134;2023-05-20T07:53:50;102530.97;;;16.73;100.00
60373;BME280;46216;52.220;5.134;2023-05-20T07:56:15;102530.38;;;16.83;100.00
60373;BME280;46216;52.220;5.134;2023-05-20T07:58:41;102518.50;;;16.85;100.00
60373;BME280;46216;52.220;5.134;2023-05-20T08:01:07;102520.22;;;16.86;100.00
60373;BME280;46216;52.220;5.134;2023-05-20T08:03:33;102529.13;;;16.99;100.00
60373;BME280;46216;52.220;5.134;2023-05-20T08:05:59;102516.06;;;17.06;100.00
60373;BME280;46216;52.220;5.134;2023-05-20T08:08:24;102523.09;;;17.09;100.00
60373;BME280;46216;52.220;5.134;2023-05-20T08:10:50;102511.09;;;17.13;100.00
60373;BME280;46216;52.220;5.134;2023-05-20T08:13:16;102509.53;;;17.21;100.00
60373;BME280;46216;52.220;5.134;2023-05-20T08:15:41;102513.28;;;17.32;100.00
60373;BME280;46216;52.220;5.134;2023-05-20T08:18:06;102520.19;;;17.36;100.00
60373;BME280;46216;52.220;5.134;2023-05-20T08:20:32;102517.84;;;17.42;100.00
60373;BME280;46216;52.220;5.134;2023-05-20T08:22:57;102515.47;;;17.50;100.00
60373;BME280;46216;52.220;5.134;2023-05-20T08:25:22;102500.13;;;17.51;100.00
60373;BME280;46216;52.220;5.134;2023-05-20T08:27:48;102508.16;;;17.64;100.00
60373;BME280;46216;52.220;5.134;2023-05-20T08:30:13;102497.88;;;17.69;100.00
60373;BME280;46216;52.220;5.134;2023-05-20T08:32:39;102508.19;;;17.75;100.00
60373;BME280;46216;52.220;5.134;2023-05-20T08:35:05;102501.31;;;17.71;100.00
60373;BME280;46216;52.220;5.134;2023-05-20T08:37:31;102509.94;;;17.76;100.00
60373;BME280;46216;52.220;5.134;2023-05-20T08:39:57;102490.53;;;17.71;100.00
60373;BME280;46216;52.220;5.134;2023-05-20T08:42:22;102493.06;;;17.85;100.00
60373;BME280;46216;52.220;5.134;2023-05-20T08:44:50;102505.09;;;17.92;100.00
60373;BME280;46216;52.220;5.134;2023-05-20T08:47:15;102493.19;;;17.95;100.00
60373;BME280;46216;52.220;5.134;2023-05-20T08:49:41;102489.66;;;18.06;100.00
60373;BME280;46216;52.220;5.134;2023-05-20T08:52:09;102486.25;;;18.15;100.00
60373;BME280;46216;52.220;5.134;2023-05-20T08:54:43;102491.03;;;18.23;100.00
60373;BME280;46216;52.220;5.134;2023-05-20T08:57:10;102477.91;;;18.18;100.00
60373;BME280;46216;52.220;5.134;2023-05-20T08:59:40;102480.00;;;18.26;100.00
60373;BME280;46216;52.220;5.134;2023-05-20T09:02:06;102475.59;;;18.25;100.00
60373;BME280;46216;52.220;5.134;2023-05-20T09:04:32;102479.53;;;18.32;100.00
60373;BME280;46216;52.220;5.134;2023-05-20T09:06:58;102469.72;;;18.42;100.00
60373;BME280;46216;52.220;5.134;2023-05-20T09:09:23;102471.91;;;18.48;100.00
60373;BME280;46216;52.220;5.134;2023-05-20T09:11:49;102474.72;;;18.58;100.00
60373;BME280;46216;52.220;5.134;2023-05-20T09:14:14;102470.19;;;18.58;100.00
60373;BME280;46216;52.220;5.134;2023-05-20T09:16:40;102468.31;;;18.70;100.00
60373;BME280;46216;52.220;5.134;2023-05-20T09:19:05;102468.09;;;18.73;100.00
60373;BME280;46216;52.220;5.134;2023-05-20T09:21:31;102469.09;;;18.72;100.00
60373;BME280;46216;52.220;5.134;2023-05-20T09:24:00;102459.63;;;18.78;100.00
60373;BME280;46216;52.220;5.134;2023-05-20T09:26:27;102459.38;;;18.81;100.00
60373;BME280;46216;52.220;5.134;2023-05-20T09:28:58;102466.22;;;18.85;100.00
60373;BME280;46216;52.220;5.134;2023-05-20T09:31:30;102462.94;;;18.93;100.00
60373;BME280;46216;52.220;5.134;2023-05-20T09:33:59;102449.63;;;19.01;100.00
60373;BME280;46216;52.220;5.134;2023-05-20T09:36:27;102449.88;;;18.98;100.00
60373;BME280;46216;52.220;5.134;2023-05-20T09:38:53;102434.88;;;19.05;100.00
60373;BME280;46216;52.220;5.134;2023-05-20T09:41:23;102450.72;;;19.09;100.00
60373;BME280;46216;52.220;5.134;2023-05-20T09:43:51;102425.50;;;19.20;100.00
60373;BME280;46216;52.220;5.134;2023-05-20T09:46:18;102429.63;;;19.24;100.00
60373;BME280;46216;52.220;5.134;2023-05-20T09:48:44;102428.13;;;19.31;100.00
60373;BME280;46216;52.220;5.134;2023-05-20T09:51:10;102437.44;;;19.38;100.00
60373;BME280;46216;52.220;5.134;2023-05-20T09:53:36;102419.69;;;19.46;100.00
60373;BME280;46216;52.220;5.134;2023-05-20T09:56:02;102425.06;;;19.57;100.00
60373;BME280;46216;52.220;5.134;2023-05-20T09:58:28;102430.75;;;19.54;100.00
60373;BME280;46216;52.220;5.134;2023-05-20T10:00:54;102424.81;;;19.60;100.00
60373;BME280;46216;52.220;5.134;2023-05-20T10:03:22;102422.97;;;19.60;100.00
60373;BME280;46216;52.220;5.134;2023-05-20T10:08:52;102406.81;;;19.70;100.00
60373;BME280;46216;52.220;5.134;2023-05-20T10:11:26;102409.56;;;19.80;100.00
60373;BME280;46216;52.220;5.134;2023-05-20T10:17:13;102411.00;;;20.05;100.00
60373;BME280;46216;52.220;5.134;2023-05-20T10:19:41;102408.91;;;20.18;100.00
60373;BME280;46216;52.220;5.134;2023-05-20T10:22:08;102408.66;;;20.21;100.00
60373;BME280;46216;52.220;5.134;2023-05-20T10:24:35;102415.47;;;20.16;100.00
60373;BME280;46216;52.220;5.134;2023-05-20T10:27:04;102398.63;;;20.12;100.00
60373;BME280;46216;52.220;5.134;2023-05-20T10:29:41;102412.16;;;20.12;100.00
60373;BME280;46216;52.220;5.134;2023-05-20T10:32:07;102400.53;;;20.21;100.00
60373;BME280;46216;52.220;5.134;2023-05-20T10:34:44;102395.53;;;20.26;100.00
60373;BME280;46216;52.220;5.134;2023-05-20T10:37:21;102402.41;;;20.30;100.00
60373;BME280;46216;52.220;5.134;2023-05-20T10:39:47;102382.78;;;20.38;100.00
60373;BME280;46216;52.220;5.134;2023-05-20T10:42:12;102381.97;;;20.57;100.00
60373;BME280;46216;52.220;5.134;2023-05-20T10:44:45;102374.31;;;20.62;100.00
60373;BME280;46216;52.220;5.134;2023-05-20T10:47:11;102372.47;;;20.72;100.00
60373;BME280;46216;52.220;5.134;2023-05-20T10:49:43;102371.59;;;20.82;100.00
60373;BME280;46216;52.220;5.134;2023-05-20T10:52:10;102367.19;;;21.00;100.00
60373;BME280;46216;52.220;5.134;2023-05-20T10:54:41;102368.06;;;21.10;100.00
60373;BME280;46216;52.220;5.134;2023-05-20T10:57:07;102364.03;;;21.34;100.00
60373;BME280;46216;52.220;5.134;2023-05-20T10:59:36;102364.16;;;21.61;100.00
60373;BME280;46216;52.220;5.134;2023-05-20T11:02:02;102350.56;;;21.71;99.71
60373;BME280;46216;52.220;5.134;2023-05-20T11:04:28;102354.72;;;21.65;98.21
60373;BME280;46216;52.220;5.134;2023-05-20T11:06:54;102354.31;;;21.60;97.62
60373;BME280;46216;52.220;5.134;2023-05-20T11:09:20;102356.72;;;21.63;98.06
60373;BME280;46216;52.220;5.134;2023-05-20T11:11:46;102350.00;;;21.67;95.85
60373;BME280;46216;52.220;5.134;2023-05-20T11:14:12;102334.75;;;21.94;96.81
60373;BME280;46216;52.220;5.134;2023-05-20T11:16:40;102339.66;;;22.46;98.36
60373;BME280;46216;52.220;5.134;2023-05-20T11:19:14;102342.16;;;22.75;95.61
60373;BME280;46216;52.220;5.134;2023-05-20T11:21:43;102331.66;;;23.16;97.16
60373;BME280;46216;52.220;5.134;2023-05-20T11:24:09;102337.94;;;23.34;95.34
60373;BME280;46216;52.220;5.134;2023-05-20T11:26:35;102335.84;;;22.92;92.37
60373;BME280;46216;52.220;5.134;2023-05-20T11:29:01;102331.34;;;22.65;92.22
60373;BME280;46216;52.220;5.134;2023-05-20T11:31:27;102337.72;;;22.74;94.47
60373;BME280;46216;52.220;5.134;2023-05-20T11:33:52;102336.72;;;22.93;92.21
60373;BME280;46216;52.220;5.134;2023-05-20T11:36:17;102334.78;;;22.85;92.33
60373;BME280;46216;52.220;5.134;2023-05-20T11:38:45;102325.91;;;23.19;93.21
60373;BME280;46216;52.220;5.134;2023-05-20T11:41:10;102335.19;;;23.08;93.00
60373;BME280;46216;52.220;5.134;2023-05-20T11:43:36;102327.41;;;22.77;93.33
60373;BME280;46216;52.220;5.134;2023-05-20T11:46:03;102324.78;;;23.03;94.21
60373;BME280;46216;52.220;5.134;2023-05-20T11:48:29;102315.34;;;23.16;95.48
60373;BME280;46216;52.220;5.134;2023-05-20T11:50:55;102309.63;;;23.45;93.38
60373;BME280;46216;52.220;5.134;2023-05-20T11:53:22;102319.84;;;23.25;92.43
60373;BME280;46216;52.220;5.134;2023-05-20T11:55:55;102313.69;;;22.97;91.89
60373;BME280;46216;52.220;5.134;2023-05-20T11:58:22;102321.91;;;22.69;90.47
60373;BME280;46216;52.220;5.134;2023-05-20T12:00:48;102307.91;;;22.46;91.46
60373;BME280;46216;52.220;5.134;2023-05-20T12:03:13;102291.31;;;22.49;94.97
60373;BME280;46216;52.220;5.134;2023-05-20T12:05:39;102309.91;;;22.44;93.75
60373;BME280;46216;52.220;5.134;2023-05-20T12:08:05;102305.50;;;22.79;93.65
60373;BME280;46216;52.220;5.134;2023-05-20T12:10:31;102299.72;;;23.18;93.30
60373;BME280;46216;52.220;5.134;2023-05-20T12:12:57;102294.94;;;23.37;92.26
60373;BME280;46216;52.220;5.134;2023-05-20T12:15:22;102298.34;;;23.66;92.96
60373;BME280;46216;52.220;5.134;2023-05-20T12:17:50;102291.78;;;23.76;92.36
60373;BME280;46216;52.220;5.134;2023-05-20T12:20:17;102284.22;;;23.96;90.67
60373;BME280;46216;52.220;5.134;2023-05-20T12:22:43;102288.44;;;24.41;93.96
60373;BME280;46216;52.220;5.134;2023-05-20T12:25:11;102283.53;;;24.53;90.00
60373;BME280;46216;52.220;5.134;2023-05-20T12:27:37;102270.78;;;24.70;90.04
60373;BME280;46216;52.220;5.134;2023-05-20T12:30:03;102268.72;;;24.72;87.24
60373;BME280;46216;52.220;5.134;2023-05-20T12:32:29;102277.41;;;24.75;87.46
60373;BME280;46216;52.220;5.134;2023-05-20T12:34:54;102280.56;;;24.38;88.42
60373;BME280;46216;52.220;5.134;2023-05-20T12:37:20;102272.28;;;24.48;88.53
60373;BME280;46216;52.220;5.134;2023-05-20T12:39:45;102266.50;;;24.67;89.91
60373;BME280;46216;52.220;5.134;2023-05-20T12:42:10;102279.09;;;24.44;88.68